Leopard Sea — 9VNR4 — position and weather

sailwx.info

Track history (hours):
 
Tides and Currents Weather Stations Pressure Air Temp Water Temp Dewpoint Dewpoint Depression Visibility Wind Speed Wind Dir Waves Ship Positions

Leopard Sea

Last reported at 2018-Jun-24 14:52 UTC. Time now 2018-Jun-25 02:08 UTC.
Position N 49°58' W 014°28'.

Length 183 m; draft 10.8 m.

Type: Ship. MMSI: 563200000.

Date/timePositionNaut miles runAvg speedWind from/ knotsBaromVisibWave heightAir tempDewpointWater temp
2018-Jun-24 14:52N 49°58' W 014°28'412.0
2018-Jun-24 14:30N 49°59' W 014°22'611.8
2018-Jun-24 14:00N 50°01' W 014°13'612.5
2018-Jun-24 13:29N 50°03' W 014°03'1414.2
2018-Jun-24 12:32N 50°07' W 013°43'513.2
2018-Jun-24 12:09N 50°08' W 013°36'212.2
2018-Jun-24 11:58N 50°09' W 013°32'3012.1
2018-Jun-24 09:31N 50°17' W 012°48'511.8
2018-Jun-24 09:03N 50°18' W 012°40'211.9
2018-Jun-24 08:55N 50°19' W 012°37'912.1
2018-Jun-24 08:11N 50°21' W 012°24'212.1
2018-Jun-24 07:59N 50°22' W 012°20'2012.0
2018-Jun-24 06:18N 50°28' W 011°50'1812.5
2018-Jun-24 04:51N 50°33' W 011°22'512.5
2018-Jun-24 04:29N 50°34' W 011°15'612.5
2018-Jun-24 04:00N 50°36' W 011°06'712.7
2018-Jun-24 03:28N 50°37' W 010°56'1628.6
2018-Jun-24 02:54N 50°42' W 010°31'1 2.6
2018-Jun-24 02:28N 50°42' W 010°30'1020.1
2018-Jun-24 01:59N 50°45' W 010°15'2 3.8
2018-Jun-24 01:21N 50°46' W 010°11'920.1
2018-Jun-24 00:54N 50°48' W 009°57'0 0.8
2018-Jun-24 00:23N 50°48' W 009°58'512.0
2018-Jun-24 00:00N 50°49' W 009°51'711.8
2018-Jun-23 23:22N 50°51' W 009°39'511.9
2018-Jun-23 22:56N 50°53' W 009°31'511.8
2018-Jun-23 22:29N 50°54' W 009°23'611.8
2018-Jun-23 22:00N 50°55' W 009°15'611.9
2018-Jun-23 21:30N 50°57' W 009°06'612.0
2018-Jun-23 20:59N 50°59' W 008°56'612.0
2018-Jun-23 20:30N 51°00' W 008°47'611.7
2018-Jun-23 20:00N 51°02' W 008°38'611.9
2018-Jun-23 19:30N 51°03' W 008°29'612.0
2018-Jun-23 19:00N 51°05' W 008°20'612.0
2018-Jun-23 18:30N 51°06' W 008°11'612.2
2018-Jun-23 18:00N 51°08' W 008°02'612.3
2018-Jun-23 17:30N 51°10' W 007°52'612.3
2018-Jun-23 17:00N 51°11' W 007°43'612.3
2018-Jun-23 16:29N 51°13' W 007°33'612.2
2018-Jun-23 16:00N 51°15' W 007°24'612.1
2018-Jun-23 15:30N 51°16' W 007°14'612.1
2018-Jun-23 15:00N 51°18' W 007°05'612.2
2018-Jun-23 14:30N 51°19' W 006°56'611.9
2018-Jun-23 14:00N 51°21' W 006°46'612.0
2018-Jun-23 13:30N 51°22' W 006°37'612.0
2018-Jun-23 13:00N 51°24' W 006°28'612.2
2018-Jun-23 12:30N 51°26' W 006°19'612.3
2018-Jun-23 12:00N 51°27' W 006°09'612.4
2018-Jun-23 11:30N 51°30' W 005°60'612.1
2018-Jun-23 11:00N 51°31' W 005°50'612.1
2018-Jun-23 10:30N 51°32' W 005°41'612.1
2018-Jun-23 10:00N 51°34' W 005°32'611.7
2018-Jun-23 09:30N 51°35' W 005°22'611.4
2018-Jun-23 09:00N 51°37' W 005°14'510.8
2018-Jun-23 08:30N 51°42' W 005°09'4 8.3
2018-Jun-23 08:00N 51°42' W 005°02'0 0.2
2018-Jun-23 07:28N 51°42' W 005°02'0 0.0
2018-Jun-23 06:58N 51°42' W 005°02'0 0.0
2018-Jun-23 06:28N 51°42' W 005°02'0 0.0
2018-Jun-23 05:58N 51°42' W 005°02'0 0.0
2018-Jun-23 05:28N 51°42' W 005°02'0 0.0
2018-Jun-23 04:58N 51°42' W 005°02'0 0.0
2018-Jun-23 04:28N 51°42' W 005°02'0 0.0
2018-Jun-23 03:58N 51°42' W 005°02'0 0.0
2018-Jun-23 03:28N 51°42' W 005°02'0 0.0
2018-Jun-23 02:58N 51°42' W 005°02'0 0.0
2018-Jun-23 02:28N 51°42' W 005°02'0 0.0
2018-Jun-23 01:58N 51°42' W 005°02'0 0.0
2018-Jun-23 01:28N 51°42' W 005°02'0 0.0
2018-Jun-23 00:58N 51°42' W 005°02'0 0.0
2018-Jun-23 00:28N 51°42' W 005°02'0 0.0
2018-Jun-22 23:58N 51°42' W 005°02'0 0.0
2018-Jun-22 23:28N 51°42' W 005°02'0 0.0
2018-Jun-22 22:58N 51°42' W 005°02'0 0.0
2018-Jun-22 22:28N 51°42' W 005°02'0 0.0
2018-Jun-22 21:58N 51°42' W 005°02'0 0.0
2018-Jun-22 21:28N 51°42' W 005°02'0 0.0
2018-Jun-22 20:58N 51°42' W 005°02'0 0.0
2018-Jun-22 20:28N 51°42' W 005°02'0 0.0
2018-Jun-22 19:58N 51°42' W 005°02'0 0.0
2018-Jun-22 19:28N 51°42' W 005°02'0 0.0
2018-Jun-22 18:55N 51°42' W 005°02'0 0.0
2018-Jun-22 18:28N 51°42' W 005°02'0 0.0
2018-Jun-22 17:58N 51°42' W 005°02'0 0.0
2018-Jun-22 17:28N 51°42' W 005°02'0 0.0
2018-Jun-22 16:58N 51°42' W 005°02'0 0.0
2018-Jun-22 16:28N 51°42' W 005°02'0 0.0
2018-Jun-22 15:58N 51°42' W 005°02'0 0.0
2018-Jun-22 15:28N 51°42' W 005°02'0 0.0
2018-Jun-22 14:58N 51°42' W 005°02'0 0.0
2018-Jun-22 14:28N 51°42' W 005°02'0 0.0
2018-Jun-22 13:58N 51°42' W 005°02'0 0.0
2018-Jun-22 13:28N 51°42' W 005°02'0 0.0
2018-Jun-22 12:58N 51°42' W 005°02'0 0.0
2018-Jun-22 12:28N 51°42' W 005°02'0 0.0
2018-Jun-22 11:58N 51°42' W 005°02'0 0.0
2018-Jun-22 11:28N 51°42' W 005°02'0 0.0
2018-Jun-22 10:58N 51°42' W 005°02'0 0.0
2018-Jun-22 10:28N 51°42' W 005°02'0 0.0
2018-Jun-22 09:58N 51°42' W 005°02'0 0.0
2018-Jun-22 09:28N 51°42' W 005°02'0 0.0
2018-Jun-22 08:58N 51°42' W 005°02'0 0.0
2018-Jun-22 08:22N 51°42' W 005°02'0 0.0
2018-Jun-22 07:58N 51°42' W 005°02'0 0.0
2018-Jun-22 07:28N 51°42' W 005°02'0 0.0
2018-Jun-22 06:58N 51°42' W 005°02'0 0.0
2018-Jun-22 06:28N 51°42' W 005°02'0 0.0
2018-Jun-22 05:55N 51°42' W 005°02'0 0.0
2018-Jun-22 05:25N 51°42' W 005°02'0 0.0
2018-Jun-22 04:58N 51°42' W 005°02'0 0.0
2018-Jun-22 04:25N 51°42' W 005°02'0 0.0
2018-Jun-22 03:58N 51°42' W 005°02'0 0.0
2018-Jun-22 03:25N 51°42' W 005°02'0 0.0
2018-Jun-22 02:58N 51°42' W 005°02'0 0.0
2018-Jun-22 02:28N 51°42' W 005°02'0 0.0
2018-Jun-22 01:58N 51°42' W 005°02'0 0.0
2018-Jun-22 01:28N 51°42' W 005°02'0 0.0
2018-Jun-22 00:58N 51°42' W 005°02'0 0.0
2018-Jun-22 00:28N 51°42' W 005°02'0 0.0
2018-Jun-21 23:58N 51°42' W 005°02'0 0.0
2018-Jun-21 23:28N 51°42' W 005°02'0 0.0
2018-Jun-21 22:58N 51°42' W 005°02'0 0.0
2018-Jun-21 22:28N 51°42' W 005°02'0 0.0
2018-Jun-21 21:52N 51°42' W 005°02'0 0.0
2018-Jun-21 21:28N 51°42' W 005°02'0 0.0
2018-Jun-21 20:58N 51°42' W 005°02'0 0.0
2018-Jun-21 20:28N 51°42' W 005°02'0 0.0
2018-Jun-21 19:58N 51°42' W 005°02'0 0.0
2018-Jun-21 19:28N 51°42' W 005°02'0 0.0
2018-Jun-21 18:58N 51°42' W 005°02'0 0.0
2018-Jun-21 18:28N 51°42' W 005°02'0 0.0
2018-Jun-21 17:58N 51°42' W 005°02'0 0.0
2018-Jun-21 17:28N 51°42' W 005°02'0 0.0
2018-Jun-21 16:58N 51°42' W 005°02'0 0.0
2018-Jun-21 16:28N 51°42' W 005°02'0 0.0
2018-Jun-21 15:58N 51°42' W 005°02'0 0.0
2018-Jun-21 15:28N 51°42' W 005°02'0 0.0
2018-Jun-21 14:58N 51°42' W 005°02'0 0.0
2018-Jun-21 14:28N 51°42' W 005°02'0 0.0
2018-Jun-21 13:58N 51°42' W 005°02'0 0.0
2018-Jun-21 13:28N 51°42' W 005°02'0 0.0
2018-Jun-21 12:58N 51°42' W 005°02'0 0.0
2018-Jun-21 12:28N 51°42' W 005°02'0 0.0
2018-Jun-21 11:58N 51°42' W 005°02'0 0.0
2018-Jun-21 11:25N 51°42' W 005°02'0 0.0
2018-Jun-21 10:58N 51°42' W 005°02'0 0.0
2018-Jun-21 10:28N 51°42' W 005°02'0 0.0
2018-Jun-21 09:58N 51°42' W 005°02'0 0.0
2018-Jun-21 09:28N 51°42' W 005°02'0 0.0
2018-Jun-21 08:52N 51°42' W 005°02'0 0.0
2018-Jun-21 08:28N 51°42' W 005°02'0 0.0
2018-Jun-21 07:58N 51°42' W 005°02'0 0.0
2018-Jun-21 07:25N 51°42' W 005°02'0 0.0
2018-Jun-21 06:58N 51°42' W 005°02'0 0.0
2018-Jun-21 06:28N 51°42' W 005°02'0 0.0
2018-Jun-21 05:58N 51°42' W 005°02'0 0.0
2018-Jun-21 05:28N 51°42' W 005°02'0 0.0
2018-Jun-21 04:58N 51°42' W 005°02'0 0.0
2018-Jun-21 04:28N 51°42' W 005°02'0 0.0
2018-Jun-21 03:58N 51°42' W 005°02'0 0.0
2018-Jun-21 03:28N 51°42' W 005°02'0 0.0
2018-Jun-21 02:58N 51°42' W 005°02'0 0.0
2018-Jun-21 02:28N 51°42' W 005°02'0 0.0
2018-Jun-21 01:58N 51°42' W 005°02'0 0.0
2018-Jun-21 01:28N 51°42' W 005°02'0 0.0
2018-Jun-21 00:58N 51°42' W 005°02'0 0.0
2018-Jun-21 00:28N 51°42' W 005°02'0 0.0
2018-Jun-20 23:58N 51°42' W 005°02'0 0.0
2018-Jun-20 23:28N 51°42' W 005°02'0 0.0
2018-Jun-20 22:52N 51°42' W 005°02'0 0.0
2018-Jun-20 22:28N 51°42' W 005°02'0 0.0
2018-Jun-20 21:58N 51°42' W 005°02'0 0.0
2018-Jun-20 21:28N 51°42' W 005°02'0 0.0
2018-Jun-20 20:52N 51°42' W 005°02'0 0.0
2018-Jun-20 20:28N 51°42' W 005°02'0 0.0
2018-Jun-20 19:58N 51°42' W 005°02'0 0.0
2018-Jun-20 19:28N 51°42' W 005°02'0 0.0
2018-Jun-20 18:58N 51°42' W 005°02'0 0.0
2018-Jun-20 18:28N 51°42' W 005°02'0 0.0
2018-Jun-20 17:58N 51°42' W 005°02'0 0.0
2018-Jun-20 17:28N 51°42' W 005°02'0 0.0
2018-Jun-20 16:58N 51°42' W 005°02'0 0.0
2018-Jun-20 16:28N 51°42' W 005°02'0 0.0
2018-Jun-20 15:58N 51°42' W 005°02'0 0.0
2018-Jun-20 15:28N 51°42' W 005°02'0 0.0
2018-Jun-20 14:58N 51°42' W 005°02'0 0.0
2018-Jun-20 14:28N 51°42' W 005°02'0 0.0
2018-Jun-20 13:58N 51°42' W 005°02'0 0.0
2018-Jun-20 13:28N 51°42' W 005°02'0 0.0
2018-Jun-20 12:58N 51°42' W 005°02'0 0.0
2018-Jun-20 12:30N 51°42' W 005°02'3 5.2
2018-Jun-20 12:00N 51°42' W 005°06'510.2
2018-Jun-20 11:30N 51°38' W 005°12'4 8.9
2018-Jun-20 11:01N 51°36' W 005°18'5 8.5
2018-Jun-20 10:29N 51°33' W 005°24'510.1
2018-Jun-20 10:00N 51°30' W 005°29'4 7.1
2018-Jun-20 09:29N 51°26' W 005°29'1 1.6
2018-Jun-20 09:00N 51°26' W 005°27'1 1.5
2018-Jun-20 08:30N 51°26' W 005°26'1 1.2
2018-Jun-20 07:59N 51°26' W 005°25'1 1.8
2018-Jun-20 07:28N 51°26' W 005°24'1 2.0
2018-Jun-20 07:00N 51°26' W 005°22'1 2.1
2018-Jun-20 06:30N 51°26' W 005°21'1 1.4
2018-Jun-20 06:00N 51°26' W 005°19'2 4.8
2018-Jun-20 05:30N 51°26' W 005°23'3 5.1
2018-Jun-20 05:00N 51°26' W 005°27'2 4.8
2018-Jun-20 04:30N 51°26' W 005°31'2 4.9
2018-Jun-20 04:00N 51°26' W 005°35'1 1.3
2018-Jun-20 03:27N 51°27' W 005°35'1 2.4
2018-Jun-20 02:59N 51°27' W 005°33'2 4.6
2018-Jun-20 02:30N 51°29' W 005°31'4 7.2
2018-Jun-20 02:00N 51°32' W 005°28'510.5
2018-Jun-20 01:30N 51°34' W 005°20'1 2.1
2018-Jun-20 01:00N 51°35' W 005°19'2 3.5
2018-Jun-20 00:30N 51°35' W 005°22'1 1.1
2018-Jun-20 00:00N 51°35' W 005°21'0 1.0
2018-Jun-19 23:30N 51°35' W 005°21'2 3.5
2018-Jun-19 23:00N 51°34' W 005°23'4 8.6
2018-Jun-19 22:30N 51°32' W 005°29'610.9
2018-Jun-19 21:59N 51°27' W 005°34'2 5.0
2018-Jun-19 21:31N 51°25' W 005°33'1 2.8
2018-Jun-19 20:59N 51°24' W 005°31'1 2.4
2018-Jun-19 20:29N 51°24' W 005°29'1 2.3
2018-Jun-19 20:00N 51°23' W 005°27'1 2.5
2018-Jun-19 19:30N 51°23' W 005°25'1 2.4
2018-Jun-19 19:00N 51°22' W 005°24'1 2.6
2018-Jun-19 18:30N 51°22' W 005°22'1 2.7
2018-Jun-19 18:00N 51°21' W 005°20'1 2.9
2018-Jun-19 17:31N 51°20' W 005°18'2 3.2
2018-Jun-19 16:59N 51°20' W 005°15'1 2.2
2018-Jun-19 16:30N 51°20' W 005°14'2 4.8
2018-Jun-19 16:00N 51°20' W 005°17'2 4.9
2018-Jun-19 15:30N 51°21' W 005°21'4 7.4
2018-Jun-19 14:58N 51°21' W 005°28'613.1
2018-Jun-19 14:30N 51°25' W 005°35'1 1.9
2018-Jun-19 14:00N 51°26' W 005°35'2 3.7
2018-Jun-19 13:30N 51°26' W 005°32'2 4.2
2018-Jun-19 12:57N 51°25' W 005°29'2 4.0
2018-Jun-19 12:30N 51°25' W 005°26'2 3.7
2018-Jun-19 11:57N 51°24' W 005°23'1 2.6
2018-Jun-19 11:30N 51°24' W 005°21'1 1.1
2018-Jun-19 11:00N 51°25' W 005°22'1 1.4
2018-Jun-19 10:30N 51°25' W 005°23'1 1.7
2018-Jun-19 10:00N 51°24' W 005°24'1 2.0
2018-Jun-19 09:30N 51°24' W 005°26'1 2.2
2018-Jun-19 08:57N 51°24' W 005°28'1 2.4
2018-Jun-19 08:30N 51°24' W 005°29'1 2.5
2018-Jun-19 08:00N 51°24' W 005°31'1 2.5
2018-Jun-19 07:30N 51°25' W 005°33'1 2.1
2018-Jun-19 07:00N 51°25' W 005°35'1 1.6
2018-Jun-19 06:30N 51°25' W 005°34'1 2.8
2018-Jun-19 06:00N 51°24' W 005°32'1 3.0
2018-Jun-19 05:30N 51°23' W 005°30'2 3.1
2018-Jun-19 04:59N 51°22' W 005°27'1 3.1
2018-Jun-19 04:30N 51°22' W 005°26'1 2.9
2018-Jun-19 03:59N 51°21' W 005°24'2 3.9
2018-Jun-19 03:30N 51°22' W 005°26'2 4.8
2018-Jun-19 03:00N 51°23' W 005°29'2 4.5
2018-Jun-19 02:30N 51°24' W 005°33'2 4.6
2018-Jun-19 02:00N 51°25' W 005°36'2 4.5
2018-Jun-19 01:30N 51°26' W 005°39'1 1.5
2018-Jun-19 00:57N 51°25' W 005°39'2 3.6
2018-Jun-19 00:28N 51°24' W 005°36'2 3.6
2018-Jun-19 00:00N 51°24' W 005°33'2 3.4
2018-Jun-18 23:29N 51°24' W 005°31'2 3.2
2018-Jun-18 22:59N 51°23' W 005°28'2 2.9
2018-Jun-18 22:23N 51°23' W 005°26'1 2.6
2018-Jun-18 22:00N 51°22' W 005°24'1 2.3
2018-Jun-18 21:30N 51°22' W 005°22'1 2.0
2018-Jun-18 21:00N 51°21' W 005°21'1 1.5
2018-Jun-18 20:30N 51°21' W 005°20'1 1.2
2018-Jun-18 20:00N 51°21' W 005°19'1 1.2
2018-Jun-18 19:30N 51°21' W 005°18'1 1.3
2018-Jun-18 19:00N 51°20' W 005°17'1 1.1
2018-Jun-18 18:30N 51°20' W 005°16'1 1.3
2018-Jun-18 18:00N 51°20' W 005°16'1 1.5
2018-Jun-18 17:30N 51°19' W 005°15'1 1.5
2018-Jun-18 17:00N 51°19' W 005°13'1 2.9
2018-Jun-18 16:30N 51°20' W 005°15'3 6.3
2018-Jun-18 16:00N 51°20' W 005°20'612.7
2018-Jun-18 15:30N 51°23' W 005°29'3 5.3
2018-Jun-18 15:00N 51°25' W 005°33'1 2.9
2018-Jun-18 14:30N 51°24' W 005°31'4 3.6
2018-Jun-18 13:16N 51°23' W 005°24'1 4.1
2018-Jun-18 13:00N 51°23' W 005°22'2 4.1
2018-Jun-18 12:30N 51°22' W 005°19'3 5.3
2018-Jun-18 12:00N 51°21' W 005°15'3 5.5
2018-Jun-18 11:30N 51°20' W 005°11'0 0.8
2018-Jun-18 11:00N 51°20' W 005°11'0 0.6
2018-Jun-18 10:30N 51°20' W 005°12'0 0.9
2018-Jun-18 10:00N 51°20' W 005°12'1 1.2
2018-Jun-18 09:30N 51°20' W 005°13'1 1.5
2018-Jun-18 09:00N 51°20' W 005°15'1 1.7
2018-Jun-18 08:30N 51°20' W 005°16'1 2.1
2018-Jun-18 08:00N 51°20' W 005°18'1 2.4
2018-Jun-18 07:30N 51°21' W 005°20'1 2.7
2018-Jun-18 07:00N 51°21' W 005°22'1 2.8
2018-Jun-18 06:30N 51°21' W 005°24'1 2.9
2018-Jun-18 06:00N 51°22' W 005°26'1 2.9
2018-Jun-18 05:30N 51°22' W 005°28'2 3.3
2018-Jun-18 05:00N 51°24' W 005°30'4 7.6
2018-Jun-18 04:30N 51°25' W 005°35'4 7.6
2018-Jun-18 04:00N 51°26' W 005°41'0 0.9
2018-Jun-18 03:28N 51°26' W 005°41'2 3.9
2018-Jun-18 03:00N 51°25' W 005°38'2 4.1
2018-Jun-18 02:30N 51°24' W 005°35'2 4.0
2018-Jun-18 02:00N 51°24' W 005°32'2 4.3
2018-Jun-18 01:30N 51°23' W 005°29'3 5.5
2018-Jun-18 01:00N 51°22' W 005°24'2 4.5
2018-Jun-18 00:30N 51°22' W 005°21'2 4.5
2018-Jun-17 23:59N 51°21' W 005°17'2 4.7
2018-Jun-17 23:30N 51°20' W 005°14'1 1.9
2018-Jun-17 23:00N 51°20' W 005°13'0 1.0
2018-Jun-17 22:30N 51°20' W 005°14'0 0.9
2018-Jun-17 22:00N 51°20' W 005°14'1 1.3
2018-Jun-17 21:30N 51°21' W 005°15'1 1.6
2018-Jun-17 20:59N 51°21' W 005°16'1 1.9
2018-Jun-17 20:30N 51°21' W 005°18'1 2.3
2018-Jun-17 20:00N 51°21' W 005°20'1 2.7
2018-Jun-17 19:30N 51°21' W 005°22'1 2.8
2018-Jun-17 19:00N 51°22' W 005°24'1 2.9
2018-Jun-17 18:30N 51°22' W 005°26'1 3.0
2018-Jun-17 18:00N 51°22' W 005°29'1 3.0
2018-Jun-17 17:30N 51°23' W 005°31'1 3.0
2018-Jun-17 17:00N 51°23' W 005°33'2 3.0
2018-Jun-17 16:30N 51°24' W 005°35'2 3.0
2018-Jun-17 15:59N 51°25' W 005°37'2 2.8
2018-Jun-17 15:24N 51°26' W 005°40'1 2.7
2018-Jun-17 15:00N 51°26' W 005°41'1 2.6
2018-Jun-17 14:30N 51°27' W 005°43'1 2.3
2018-Jun-17 14:00N 51°28' W 005°44'4 8.5
2018-Jun-17 13:29N 51°31' W 005°50'23 7.3
2018-Jun-17 10:22N 51°52' W 005°38'712.7
2018-Jun-17 09:50N 51°48' W 005°28'24 4.8
2018-Jun-17 04:49N 52°08' W 005°50'614.4
2018-Jun-17 04:26N 52°14' W 005°49'614.8
2018-Jun-17 04:01N 52°20' W 005°47'2314.4
2018-Jun-17 02:24N 52°43' W 005°42'613.3
2018-Jun-17 01:59N 52°48' W 005°41'612.9
2018-Jun-17 01:30N 52°54' W 005°39'612.3
2018-Jun-17 01:00N 53°01' W 005°38'611.6
2018-Jun-17 00:30N 53°06' W 005°39'612.2
2018-Jun-17 00:00N 53°12' W 005°44'510.8
2018-Jun-16 23:30N 53°16' W 005°48'711.1
2018-Jun-16 22:54N 53°20' W 005°57'410.9
2018-Jun-16 22:30N 53°20' W 006°04'0 0.0
2018-Jun-15 09:23N 53°20' W 006°04'2 4.4
2018-Jun-15 09:00N 53°18' W 006°04'  
Track history (hours):
 
Tides and Currents Weather Stations Pressure Air Temp Water Temp Dewpoint Dewpoint Depression Visibility Wind Speed Wind Dir Waves Ship Positions

Leopard Sea

Last reported at 2018-Jun-24 14:52 UTC. Time now 2018-Jun-25 02:08 UTC.
Position N 49°58' W 014°28'.

Length 183 m; draft 10.8 m.

Type: Ship. MMSI: 563200000.

Date/timePositionNaut miles runAvg speedWind from/ knotsBaromVisibWave heightAir tempDewpointWater temp
2018-Jun-24 14:52N 49°58' W 014°28'412.0
2018-Jun-24 14:30N 49°59' W 014°22'611.8
2018-Jun-24 14:00N 50°01' W 014°13'612.5
2018-Jun-24 13:29N 50°03' W 014°03'1414.2
2018-Jun-24 12:32N 50°07' W 013°43'513.2
2018-Jun-24 12:09N 50°08' W 013°36'212.2
2018-Jun-24 11:58N 50°09' W 013°32'3012.1
2018-Jun-24 09:31N 50°17' W 012°48'511.8
2018-Jun-24 09:03N 50°18' W 012°40'211.9
2018-Jun-24 08:55N 50°19' W 012°37'912.1
2018-Jun-24 08:11N 50°21' W 012°24'212.1
2018-Jun-24 07:59N 50°22' W 012°20'2012.0
2018-Jun-24 06:18N 50°28' W 011°50'1812.5
2018-Jun-24 04:51N 50°33' W 011°22'512.5
2018-Jun-24 04:29N 50°34' W 011°15'612.5
2018-Jun-24 04:00N 50°36' W 011°06'712.7
2018-Jun-24 03:28N 50°37' W 010°56'1628.6
2018-Jun-24 02:54N 50°42' W 010°31'1 2.6
2018-Jun-24 02:28N 50°42' W 010°30'1020.1
2018-Jun-24 01:59N 50°45' W 010°15'2 3.8
2018-Jun-24 01:21N 50°46' W 010°11'920.1
2018-Jun-24 00:54N 50°48' W 009°57'0 0.8
2018-Jun-24 00:23N 50°48' W 009°58'512.0
2018-Jun-24 00:00N 50°49' W 009°51'711.8
2018-Jun-23 23:22N 50°51' W 009°39'511.9
2018-Jun-23 22:56N 50°53' W 009°31'511.8
2018-Jun-23 22:29N 50°54' W 009°23'611.8
2018-Jun-23 22:00N 50°55' W 009°15'611.9
2018-Jun-23 21:30N 50°57' W 009°06'612.0
2018-Jun-23 20:59N 50°59' W 008°56'612.0
2018-Jun-23 20:30N 51°00' W 008°47'611.7
2018-Jun-23 20:00N 51°02' W 008°38'611.9
2018-Jun-23 19:30N 51°03' W 008°29'612.0
2018-Jun-23 19:00N 51°05' W 008°20'612.0
2018-Jun-23 18:30N 51°06' W 008°11'612.2
2018-Jun-23 18:00N 51°08' W 008°02'612.3
2018-Jun-23 17:30N 51°10' W 007°52'612.3
2018-Jun-23 17:00N 51°11' W 007°43'612.3
2018-Jun-23 16:29N 51°13' W 007°33'612.2
2018-Jun-23 16:00N 51°15' W 007°24'612.1
2018-Jun-23 15:30N 51°16' W 007°14'612.1
2018-Jun-23 15:00N 51°18' W 007°05'612.2
2018-Jun-23 14:30N 51°19' W 006°56'611.9
2018-Jun-23 14:00N 51°21' W 006°46'612.0
2018-Jun-23 13:30N 51°22' W 006°37'612.0
2018-Jun-23 13:00N 51°24' W 006°28'612.2
2018-Jun-23 12:30N 51°26' W 006°19'612.3
2018-Jun-23 12:00N 51°27' W 006°09'612.4
2018-Jun-23 11:30N 51°30' W 005°60'612.1
2018-Jun-23 11:00N 51°31' W 005°50'612.1
2018-Jun-23 10:30N 51°32' W 005°41'612.1
2018-Jun-23 10:00N 51°34' W 005°32'611.7
2018-Jun-23 09:30N 51°35' W 005°22'611.4
2018-Jun-23 09:00N 51°37' W 005°14'510.8
2018-Jun-23 08:30N 51°42' W 005°09'4 8.3
2018-Jun-23 08:00N 51°42' W 005°02'0 0.2
2018-Jun-23 07:28N 51°42' W 005°02'0 0.0
2018-Jun-23 06:58N 51°42' W 005°02'0 0.0
2018-Jun-23 06:28N 51°42' W 005°02'0 0.0
2018-Jun-23 05:58N 51°42' W 005°02'0 0.0
2018-Jun-23 05:28N 51°42' W 005°02'0 0.0
2018-Jun-23 04:58N 51°42' W 005°02'0 0.0
2018-Jun-23 04:28N 51°42' W 005°02'0 0.0
2018-Jun-23 03:58N 51°42' W 005°02'0 0.0
2018-Jun-23 03:28N 51°42' W 005°02'0 0.0
2018-Jun-23 02:58N 51°42' W 005°02'0 0.0
2018-Jun-23 02:28N 51°42' W 005°02'0 0.0
2018-Jun-23 01:58N 51°42' W 005°02'0 0.0
2018-Jun-23 01:28N 51°42' W 005°02'0 0.0
2018-Jun-23 00:58N 51°42' W 005°02'0 0.0
2018-Jun-23 00:28N 51°42' W 005°02'0 0.0
2018-Jun-22 23:58N 51°42' W 005°02'0 0.0
2018-Jun-22 23:28N 51°42' W 005°02'0 0.0
2018-Jun-22 22:58N 51°42' W 005°02'0 0.0
2018-Jun-22 22:28N 51°42' W 005°02'0 0.0
2018-Jun-22 21:58N 51°42' W 005°02'0 0.0
2018-Jun-22 21:28N 51°42' W 005°02'0 0.0
2018-Jun-22 20:58N 51°42' W 005°02'0 0.0
2018-Jun-22 20:28N 51°42' W 005°02'0 0.0
2018-Jun-22 19:58N 51°42' W 005°02'0 0.0
2018-Jun-22 19:28N 51°42' W 005°02'0 0.0
2018-Jun-22 18:55N 51°42' W 005°02'0 0.0
2018-Jun-22 18:28N 51°42' W 005°02'0 0.0
2018-Jun-22 17:58N 51°42' W 005°02'0 0.0
2018-Jun-22 17:28N 51°42' W 005°02'0 0.0
2018-Jun-22 16:58N 51°42' W 005°02'0 0.0
2018-Jun-22 16:28N 51°42' W 005°02'0 0.0
2018-Jun-22 15:58N 51°42' W 005°02'0 0.0
2018-Jun-22 15:28N 51°42' W 005°02'0 0.0
2018-Jun-22 14:58N 51°42' W 005°02'0 0.0
2018-Jun-22 14:28N 51°42' W 005°02'0 0.0
2018-Jun-22 13:58N 51°42' W 005°02'0 0.0
2018-Jun-22 13:28N 51°42' W 005°02'0 0.0
2018-Jun-22 12:58N 51°42' W 005°02'0 0.0
2018-Jun-22 12:28N 51°42' W 005°02'0 0.0
2018-Jun-22 11:58N 51°42' W 005°02'0 0.0
2018-Jun-22 11:28N 51°42' W 005°02'0 0.0
2018-Jun-22 10:58N 51°42' W 005°02'0 0.0
2018-Jun-22 10:28N 51°42' W 005°02'0 0.0
2018-Jun-22 09:58N 51°42' W 005°02'0 0.0
2018-Jun-22 09:28N 51°42' W 005°02'0 0.0
2018-Jun-22 08:58N 51°42' W 005°02'0 0.0
2018-Jun-22 08:22N 51°42' W 005°02'0 0.0
2018-Jun-22 07:58N 51°42' W 005°02'0 0.0
2018-Jun-22 07:28N 51°42' W 005°02'0 0.0
2018-Jun-22 06:58N 51°42' W 005°02'0 0.0
2018-Jun-22 06:28N 51°42' W 005°02'0 0.0
2018-Jun-22 05:55N 51°42' W 005°02'0 0.0
2018-Jun-22 05:25N 51°42' W 005°02'0 0.0
2018-Jun-22 04:58N 51°42' W 005°02'0 0.0
2018-Jun-22 04:25N 51°42' W 005°02'0 0.0
2018-Jun-22 03:58N 51°42' W 005°02'0 0.0
2018-Jun-22 03:25N 51°42' W 005°02'0 0.0
2018-Jun-22 02:58N 51°42' W 005°02'0 0.0
2018-Jun-22 02:28N 51°42' W 005°02'0 0.0
2018-Jun-22 01:58N 51°42' W 005°02'0 0.0
2018-Jun-22 01:28N 51°42' W 005°02'0 0.0
2018-Jun-22 00:58N 51°42' W 005°02'0 0.0
2018-Jun-22 00:28N 51°42' W 005°02'0 0.0
2018-Jun-21 23:58N 51°42' W 005°02'0 0.0
2018-Jun-21 23:28N 51°42' W 005°02'0 0.0
2018-Jun-21 22:58N 51°42' W 005°02'0 0.0
2018-Jun-21 22:28N 51°42' W 005°02'0 0.0
2018-Jun-21 21:52N 51°42' W 005°02'0 0.0
2018-Jun-21 21:28N 51°42' W 005°02'0 0.0
2018-Jun-21 20:58N 51°42' W 005°02'0 0.0
2018-Jun-21 20:28N 51°42' W 005°02'0 0.0
2018-Jun-21 19:58N 51°42' W 005°02'0 0.0
2018-Jun-21 19:28N 51°42' W 005°02'0 0.0
2018-Jun-21 18:58N 51°42' W 005°02'0 0.0
2018-Jun-21 18:28N 51°42' W 005°02'0 0.0
2018-Jun-21 17:58N 51°42' W 005°02'0 0.0
2018-Jun-21 17:28N 51°42' W 005°02'0 0.0
2018-Jun-21 16:58N 51°42' W 005°02'0 0.0
2018-Jun-21 16:28N 51°42' W 005°02'0 0.0
2018-Jun-21 15:58N 51°42' W 005°02'0 0.0
2018-Jun-21 15:28N 51°42' W 005°02'0 0.0
2018-Jun-21 14:58N 51°42' W 005°02'0 0.0
2018-Jun-21 14:28N 51°42' W 005°02'0 0.0
2018-Jun-21 13:58N 51°42' W 005°02'0 0.0
2018-Jun-21 13:28N 51°42' W 005°02'0 0.0
2018-Jun-21 12:58N 51°42' W 005°02'0 0.0
2018-Jun-21 12:28N 51°42' W 005°02'0 0.0
2018-Jun-21 11:58N 51°42' W 005°02'0 0.0
2018-Jun-21 11:25N 51°42' W 005°02'0 0.0
2018-Jun-21 10:58N 51°42' W 005°02'0 0.0
2018-Jun-21 10:28N 51°42' W 005°02'0 0.0
2018-Jun-21 09:58N 51°42' W 005°02'0 0.0
2018-Jun-21 09:28N 51°42' W 005°02'0 0.0
2018-Jun-21 08:52N 51°42' W 005°02'0 0.0
2018-Jun-21 08:28N 51°42' W 005°02'0 0.0
2018-Jun-21 07:58N 51°42' W 005°02'0 0.0
2018-Jun-21 07:25N 51°42' W 005°02'0 0.0
2018-Jun-21 06:58N 51°42' W 005°02'0 0.0
2018-Jun-21 06:28N 51°42' W 005°02'0 0.0
2018-Jun-21 05:58N 51°42' W 005°02'0 0.0
2018-Jun-21 05:28N 51°42' W 005°02'0 0.0
2018-Jun-21 04:58N 51°42' W 005°02'0 0.0
2018-Jun-21 04:28N 51°42' W 005°02'0 0.0
2018-Jun-21 03:58N 51°42' W 005°02'0 0.0
2018-Jun-21 03:28N 51°42' W 005°02'0 0.0
2018-Jun-21 02:58N 51°42' W 005°02'0 0.0
2018-Jun-21 02:28N 51°42' W 005°02'0 0.0
2018-Jun-21 01:58N 51°42' W 005°02'0 0.0
2018-Jun-21 01:28N 51°42' W 005°02'0 0.0
2018-Jun-21 00:58N 51°42' W 005°02'0 0.0
2018-Jun-21 00:28N 51°42' W 005°02'0 0.0
2018-Jun-20 23:58N 51°42' W 005°02'0 0.0
2018-Jun-20 23:28N 51°42' W 005°02'0 0.0
2018-Jun-20 22:52N 51°42' W 005°02'0 0.0
2018-Jun-20 22:28N 51°42' W 005°02'0 0.0
2018-Jun-20 21:58N 51°42' W 005°02'0 0.0
2018-Jun-20 21:28N 51°42' W 005°02'0 0.0
2018-Jun-20 20:52N 51°42' W 005°02'0 0.0
2018-Jun-20 20:28N 51°42' W 005°02'0 0.0
2018-Jun-20 19:58N 51°42' W 005°02'0 0.0
2018-Jun-20 19:28N 51°42' W 005°02'0 0.0
2018-Jun-20 18:58N 51°42' W 005°02'0 0.0
2018-Jun-20 18:28N 51°42' W 005°02'0 0.0
2018-Jun-20 17:58N 51°42' W 005°02'0 0.0
2018-Jun-20 17:28N 51°42' W 005°02'0 0.0
2018-Jun-20 16:58N 51°42' W 005°02'0 0.0
2018-Jun-20 16:28N 51°42' W 005°02'0 0.0
2018-Jun-20 15:58N 51°42' W 005°02'0 0.0
2018-Jun-20 15:28N 51°42' W 005°02'0 0.0
2018-Jun-20 14:58N 51°42' W 005°02'0 0.0
2018-Jun-20 14:28N 51°42' W 005°02'0 0.0
2018-Jun-20 13:58N 51°42' W 005°02'0 0.0
2018-Jun-20 13:28N 51°42' W 005°02'0 0.0
2018-Jun-20 12:58N 51°42' W 005°02'0 0.0
2018-Jun-20 12:30N 51°42' W 005°02'3 5.2
2018-Jun-20 12:00N 51°42' W 005°06'510.2
2018-Jun-20 11:30N 51°38' W 005°12'4 8.9
2018-Jun-20 11:01N 51°36' W 005°18'5 8.5
2018-Jun-20 10:29N 51°33' W 005°24'510.1
2018-Jun-20 10:00N 51°30' W 005°29'4 7.1
2018-Jun-20 09:29N 51°26' W 005°29'1 1.6
2018-Jun-20 09:00N 51°26' W 005°27'1 1.5
2018-Jun-20 08:30N 51°26' W 005°26'1 1.2
2018-Jun-20 07:59N 51°26' W 005°25'1 1.8
2018-Jun-20 07:28N 51°26' W 005°24'1 2.0
2018-Jun-20 07:00N 51°26' W 005°22'1 2.1
2018-Jun-20 06:30N 51°26' W 005°21'1 1.4
2018-Jun-20 06:00N 51°26' W 005°19'2 4.8
2018-Jun-20 05:30N 51°26' W 005°23'3 5.1
2018-Jun-20 05:00N 51°26' W 005°27'2 4.8
2018-Jun-20 04:30N 51°26' W 005°31'2 4.9
2018-Jun-20 04:00N 51°26' W 005°35'1 1.3
2018-Jun-20 03:27N 51°27' W 005°35'1 2.4
2018-Jun-20 02:59N 51°27' W 005°33'2 4.6
2018-Jun-20 02:30N 51°29' W 005°31'4 7.2
2018-Jun-20 02:00N 51°32' W 005°28'510.5
2018-Jun-20 01:30N 51°34' W 005°20'1 2.1
2018-Jun-20 01:00N 51°35' W 005°19'2 3.5
2018-Jun-20 00:30N 51°35' W 005°22'1 1.1
2018-Jun-20 00:00N 51°35' W 005°21'0 1.0
2018-Jun-19 23:30N 51°35' W 005°21'2 3.5
2018-Jun-19 23:00N 51°34' W 005°23'4 8.6
2018-Jun-19 22:30N 51°32' W 005°29'610.9
2018-Jun-19 21:59N 51°27' W 005°34'2 5.0
2018-Jun-19 21:31N 51°25' W 005°33'1 2.8
2018-Jun-19 20:59N 51°24' W 005°31'1 2.4
2018-Jun-19 20:29N 51°24' W 005°29'1 2.3
2018-Jun-19 20:00N 51°23' W 005°27'1 2.5
2018-Jun-19 19:30N 51°23' W 005°25'1 2.4
2018-Jun-19 19:00N 51°22' W 005°24'1 2.6
2018-Jun-19 18:30N 51°22' W 005°22'1 2.7
2018-Jun-19 18:00N 51°21' W 005°20'1 2.9
2018-Jun-19 17:31N 51°20' W 005°18'2 3.2
2018-Jun-19 16:59N 51°20' W 005°15'1 2.2
2018-Jun-19 16:30N 51°20' W 005°14'2 4.8
2018-Jun-19 16:00N 51°20' W 005°17'2 4.9
2018-Jun-19 15:30N 51°21' W 005°21'4 7.4
2018-Jun-19 14:58N 51°21' W 005°28'613.1
2018-Jun-19 14:30N 51°25' W 005°35'1 1.9
2018-Jun-19 14:00N 51°26' W 005°35'2 3.7
2018-Jun-19 13:30N 51°26' W 005°32'2 4.2
2018-Jun-19 12:57N 51°25' W 005°29'2 4.0
2018-Jun-19 12:30N 51°25' W 005°26'2 3.7
2018-Jun-19 11:57N 51°24' W 005°23'1 2.6
2018-Jun-19 11:30N 51°24' W 005°21'1 1.1
2018-Jun-19 11:00N 51°25' W 005°22'1 1.4
2018-Jun-19 10:30N 51°25' W 005°23'1 1.7
2018-Jun-19 10:00N 51°24' W 005°24'1 2.0
2018-Jun-19 09:30N 51°24' W 005°26'1 2.2
2018-Jun-19 08:57N 51°24' W 005°28'1 2.4
2018-Jun-19 08:30N 51°24' W 005°29'1 2.5
2018-Jun-19 08:00N 51°24' W 005°31'1 2.5
2018-Jun-19 07:30N 51°25' W 005°33'1 2.1
2018-Jun-19 07:00N 51°25' W 005°35'1 1.6
2018-Jun-19 06:30N 51°25' W 005°34'1 2.8
2018-Jun-19 06:00N 51°24' W 005°32'1 3.0
2018-Jun-19 05:30N 51°23' W 005°30'2 3.1
2018-Jun-19 04:59N 51°22' W 005°27'1 3.1
2018-Jun-19 04:30N 51°22' W 005°26'1 2.9
2018-Jun-19 03:59N 51°21' W 005°24'2 3.9
2018-Jun-19 03:30N 51°22' W 005°26'2 4.8
2018-Jun-19 03:00N 51°23' W 005°29'2 4.5
2018-Jun-19 02:30N 51°24' W 005°33'2 4.6
2018-Jun-19 02:00N 51°25' W 005°36'2 4.5
2018-Jun-19 01:30N 51°26' W 005°39'1 1.5
2018-Jun-19 00:57N 51°25' W 005°39'2 3.6
2018-Jun-19 00:28N 51°24' W 005°36'2 3.6
2018-Jun-19 00:00N 51°24' W 005°33'2 3.4
2018-Jun-18 23:29N 51°24' W 005°31'2 3.2
2018-Jun-18 22:59N 51°23' W 005°28'2 2.9
2018-Jun-18 22:23N 51°23' W 005°26'1 2.6
2018-Jun-18 22:00N 51°22' W 005°24'1 2.3
2018-Jun-18 21:30N 51°22' W 005°22'1 2.0
2018-Jun-18 21:00N 51°21' W 005°21'1 1.5
2018-Jun-18 20:30N 51°21' W 005°20'1 1.2
2018-Jun-18 20:00N 51°21' W 005°19'1 1.2
2018-Jun-18 19:30N 51°21' W 005°18'1 1.3
2018-Jun-18 19:00N 51°20' W 005°17'1 1.1
2018-Jun-18 18:30N 51°20' W 005°16'1 1.3
2018-Jun-18 18:00N 51°20' W 005°16'1 1.5
2018-Jun-18 17:30N 51°19' W 005°15'1 1.5
2018-Jun-18 17:00N 51°19' W 005°13'1 2.9
2018-Jun-18 16:30N 51°20' W 005°15'3 6.3
2018-Jun-18 16:00N 51°20' W 005°20'612.7
2018-Jun-18 15:30N 51°23' W 005°29'3 5.3
2018-Jun-18 15:00N 51°25' W 005°33'1 2.9
2018-Jun-18 14:30N 51°24' W 005°31'4 3.6
2018-Jun-18 13:16N 51°23' W 005°24'1 4.1
2018-Jun-18 13:00N 51°23' W 005°22'2 4.1
2018-Jun-18 12:30N 51°22' W 005°19'3 5.3
2018-Jun-18 12:00N 51°21' W 005°15'3 5.5
2018-Jun-18 11:30N 51°20' W 005°11'0 0.8
2018-Jun-18 11:00N 51°20' W 005°11'0 0.6
2018-Jun-18 10:30N 51°20' W 005°12'0 0.9
2018-Jun-18 10:00N 51°20' W 005°12'1 1.2
2018-Jun-18 09:30N 51°20' W 005°13'1 1.5
2018-Jun-18 09:00N 51°20' W 005°15'1 1.7
2018-Jun-18 08:30N 51°20' W 005°16'1 2.1
2018-Jun-18 08:00N 51°20' W 005°18'1 2.4
2018-Jun-18 07:30N 51°21' W 005°20'1 2.7
2018-Jun-18 07:00N 51°21' W 005°22'1 2.8
2018-Jun-18 06:30N 51°21' W 005°24'1 2.9
2018-Jun-18 06:00N 51°22' W 005°26'1 2.9
2018-Jun-18 05:30N 51°22' W 005°28'2 3.3
2018-Jun-18 05:00N 51°24' W 005°30'4 7.6
2018-Jun-18 04:30N 51°25' W 005°35'4 7.6
2018-Jun-18 04:00N 51°26' W 005°41'0 0.9
2018-Jun-18 03:28N 51°26' W 005°41'2 3.9
2018-Jun-18 03:00N 51°25' W 005°38'2 4.1
2018-Jun-18 02:30N 51°24' W 005°35'2 4.0
2018-Jun-18 02:00N 51°24' W 005°32'2 4.3
2018-Jun-18 01:30N 51°23' W 005°29'3 5.5
2018-Jun-18 01:00N 51°22' W 005°24'2 4.5
2018-Jun-18 00:30N 51°22' W 005°21'2 4.5
2018-Jun-17 23:59N 51°21' W 005°17'2 4.7
2018-Jun-17 23:30N 51°20' W 005°14'1 1.9
2018-Jun-17 23:00N 51°20' W 005°13'0 1.0
2018-Jun-17 22:30N 51°20' W 005°14'0 0.9
2018-Jun-17 22:00N 51°20' W 005°14'1 1.3
2018-Jun-17 21:30N 51°21' W 005°15'1 1.6
2018-Jun-17 20:59N 51°21' W 005°16'1 1.9
2018-Jun-17 20:30N 51°21' W 005°18'1 2.3
2018-Jun-17 20:00N 51°21' W 005°20'1 2.7
2018-Jun-17 19:30N 51°21' W 005°22'1 2.8
2018-Jun-17 19:00N 51°22' W 005°24'1 2.9
2018-Jun-17 18:30N 51°22' W 005°26'1 3.0
2018-Jun-17 18:00N 51°22' W 005°29'1 3.0
2018-Jun-17 17:30N 51°23' W 005°31'1 3.0
2018-Jun-17 17:00N 51°23' W 005°33'2 3.0
2018-Jun-17 16:30N 51°24' W 005°35'2 3.0
2018-Jun-17 15:59N 51°25' W 005°37'2 2.8
2018-Jun-17 15:24N 51°26' W 005°40'1 2.7
2018-Jun-17 15:00N 51°26' W 005°41'1 2.6
2018-Jun-17 14:30N 51°27' W 005°43'1 2.3
2018-Jun-17 14:00N 51°28' W 005°44'4 8.5
2018-Jun-17 13:29N 51°31' W 005°50'23 7.3
2018-Jun-17 10:22N 51°52' W 005°38'712.7
2018-Jun-17 09:50N 51°48' W 005°28'24 4.8
2018-Jun-17 04:49N 52°08' W 005°50'614.4
2018-Jun-17 04:26N 52°14' W 005°49'614.8
2018-Jun-17 04:01N 52°20' W 005°47'2314.4
2018-Jun-17 02:24N 52°43' W 005°42'613.3
2018-Jun-17 01:59N 52°48' W 005°41'612.9
2018-Jun-17 01:30N 52°54' W 005°39'612.3
2018-Jun-17 01:00N 53°01' W 005°38'611.6
2018-Jun-17 00:30N 53°06' W 005°39'612.2
2018-Jun-17 00:00N 53°12' W 005°44'510.8
2018-Jun-16 23:30N 53°16' W 005°48'711.1
2018-Jun-16 22:54N 53°20' W 005°57'410.9
2018-Jun-16 22:30N 53°20' W 006°04'0 0.0
2018-Jun-15 09:23N 53°20' W 006°04'2 4.4
2018-Jun-15 09:00N 53°18' W 006°04'  

Dump ship's entire track history